Mednogorsk, Russia
Current Conditions -  °F | °C
As of 7:00 AM on Thursday 23 Oct 2014 (Local Time) from UWOR Reporting Station
Overcast Overcast  
Wind Chill: 14°   Ceiling: 1300
Heat Index: 36°   Visibility: 6mi
Dew Point: 28°   Wind: 150mph
Humidity: 75%   Direction: 280°W
Pressure: 29.68"   Gusts: NA
Location:  51.42°N, 57.58°E
Report Text: UWOR 230200Z 280067MPS 9999 OVC013CB 02/M02 Q1005 25190060NOSIG RMK QFE731/0974
Loading
Personal Weather Stations






























Interactive Weather Map
Tropical Storm Tracking
New forecast layout! Learn more

10-Day Weather Forecast

Advertisements
Track Severe Weather on mobile